Terminal Aerodrome Forecast
Issued by NWS

Home | Current Version | Previous Version | Text Only | Print | Product List | Glossary On
Versions: 1 2 3 4 5 6 7 8 9 10 11 12 13
000
FTUS45 KTFX 290520
TAFHVR
TAF
KHVR 290520Z 2906/3006 23010KT P6SM FEW070
     FM291600 24015KT P6SM BKN070
     FM300200 22010KT P6SM BKN060=

USA.gov is the U.S. government's official web portal to all federal, state and local government web resources and services.